createdAt,value
2023-03-01T04:48:02.121Z,101396.47
2023-03-01T04:51:06.945Z,101396.47
2023-03-01T04:54:09.757Z,101386.37
2023-03-01T04:57:12.822Z,101383.72
2023-03-01T05:00:22.949Z,101378.47
2023-03-01T05:03:25.942Z,101368.87
2023-03-01T05:06:28.980Z,101368.87
2023-03-01T05:09:31.914Z,101367.12
2023-03-01T05:12:34.700Z,101373.22
2023-03-01T05:15:37.557Z,101375.94
2023-03-01T05:18:41.407Z,101369.69
2023-03-01T05:22:02.894Z,101368.84
2023-03-01T05:25:05.966Z,101380.94
2023-03-01T05:28:12.804Z,101372.25
2023-03-01T05:31:15.163Z,101385.31
2023-03-01T05:34:17.844Z,101384.38
2023-03-01T05:37:20.475Z,101380.91
2023-03-01T05:40:25.136Z,101385.94
2023-03-01T05:43:35.593Z,101377.44
2023-03-01T05:46:38.201Z,101378.31
2023-03-01T05:49:40.999Z,101379.87
2023-03-01T05:52:44.096Z,101380.69
2023-03-01T05:55:48.362Z,101385.00
2023-03-01T05:58:51.125Z,101391.94
2023-03-01T06:01:54.543Z,101390.25
2023-03-01T06:04:57.283Z,101394.59
2023-03-01T06:08:01.378Z,101390.16
2023-03-01T06:11:04.929Z,101391.03
2023-03-01T06:14:09.050Z,101394.50
2023-03-01T06:17:11.669Z,101392.69
2023-03-01T06:20:15.650Z,101397.94
2023-03-01T06:23:18.344Z,101395.31
2023-03-01T06:26:21.106Z,101396.28
2023-03-01T06:29:23.795Z,101396.28
2023-03-01T06:32:26.211Z,101399.75
2023-03-01T06:35:32.210Z,101404.03
2023-03-01T06:38:35.119Z,101404.88
2023-03-01T06:41:40.529Z,101416.94
2023-03-01T06:44:43.122Z,101422.25
2023-03-01T06:47:45.899Z,101419.59
2023-03-01T06:50:48.899Z,101423.94
2023-03-01T06:53:51.728Z,101426.47
2023-03-01T06:56:54.133Z,101423.59
2023-03-01T06:59:58.236Z,101423.63
2023-03-01T07:03:03.398Z,101426.19
2023-03-01T07:06:06.878Z,101416.59
2023-03-01T07:09:09.423Z,101418.31
2023-03-01T07:12:12.367Z,101420.06
2023-03-01T07:15:16.104Z,101415.63
2023-03-01T07:18:18.812Z,101414.69
2023-03-01T07:21:22.139Z,101412.09
2023-03-01T07:24:24.861Z,101419.00
2023-03-01T07:27:28.006Z,101411.88
2023-03-01T07:30:33.271Z,101404.75
2023-03-01T07:33:35.787Z,101409.94
2023-03-01T07:36:40.452Z,101406.41
2023-03-01T07:39:43.297Z,101412.47
2023-03-01T07:42:46.418Z,101403.75
2023-03-01T07:45:48.829Z,101414.31
2023-03-01T07:48:51.580Z,101412.41
2023-03-01T07:51:54.284Z,101403.37
2023-03-01T07:54:57.853Z,101398.97
2023-03-01T07:58:01.424Z,101395.28
2023-03-01T08:01:06.500Z,101395.38
2023-03-01T08:04:11.402Z,101390.88
2023-03-01T08:07:13.825Z,101388.12
2023-03-01T08:10:17.563Z,101400.19
2023-03-01T08:13:23.396Z,101394.72
2023-03-01T08:16:26.122Z,101402.31
2023-03-01T08:19:29.127Z,101392.66
2023-03-01T08:22:31.818Z,101393.50
2023-03-01T08:25:34.233Z,101388.59
2023-03-01T08:28:37.229Z,101384.09
2023-03-01T08:31:41.333Z,101382.91
2023-03-01T08:34:47.766Z,101380.44
2023-03-01T08:37:50.276Z,101370.44
2023-03-01T08:40:54.860Z,101381.69
2023-03-01T08:43:59.995Z,101376.94
2023-03-01T08:47:03.294Z,101376.19
2023-03-01T08:50:06.289Z,101369.41
2023-03-01T08:53:10.638Z,101370.31
2023-03-01T08:56:15.469Z,101369.91
2023-03-01T08:59:19.199Z,101356.09
2023-03-01T09:02:21.824Z,101352.94
2023-03-01T09:05:24.642Z,101354.34
2023-03-01T09:08:27.242Z,101353.41
2023-03-01T09:11:30.494Z,101356.59
2023-03-01T09:14:33.122Z,101348.53
2023-03-01T09:17:35.956Z,101345.75
2023-03-01T09:20:39.089Z,101344.41
2023-03-01T09:23:45.161Z,101341.38
2023-03-01T09:26:50.659Z,101338.78
2023-03-01T09:29:54.120Z,101325.50
2023-03-01T09:32:59.588Z,101319.13
2023-03-01T09:36:05.423Z,101314.72
2023-03-01T09:39:08.677Z,101315.19
2023-03-01T09:42:13.219Z,101301.56
2023-03-01T09:45:30.244Z,101298.13
2023-03-01T09:48:42.435Z,101301.81
2023-03-01T09:51:55.704Z,101307.53
2023-03-01T09:55:00.670Z,101294.53
2023-03-01T09:58:47.681Z,101298.00
2023-03-01T10:02:22.391Z,101291.69
2023-03-01T10:05:35.072Z,101285.44
2023-03-01T10:08:42.589Z,101298.56
2023-03-01T10:11:51.306Z,101297.22
2023-03-01T10:15:06.514Z,101291.91
2023-03-01T10:18:22.284Z,101275.28
2023-03-01T10:21:24.883Z,101270.94
2023-03-01T10:24:36.312Z,101266.06
2023-03-01T10:27:48.608Z,101255.16
2023-03-01T10:30:52.656Z,101252.28
2023-03-01T10:33:57.149Z,101249.59
2023-03-01T10:37:12.938Z,101244.31
2023-03-01T10:40:15.528Z,101241.94
2023-03-01T10:43:19.371Z,101239.78
2023-03-01T10:46:37.279Z,101238.22
2023-03-01T10:49:40.012Z,101236.09
2023-03-01T10:52:42.734Z,101223.75
2023-03-01T10:55:47.810Z,101218.88
2023-03-01T10:59:22.862Z,101214.03
2023-03-01T11:02:34.950Z,101207.84
2023-03-01T11:05:53.463Z,101201.31
2023-03-01T11:08:56.675Z,101200.16
2023-03-01T11:12:01.804Z,101206.06
2023-03-01T11:15:04.956Z,101201.88
2023-03-01T11:18:23.644Z,101194.34
2023-03-01T11:21:32.809Z,101192.00
2023-03-01T11:24:38.851Z,101189.72
2023-03-01T11:27:44.612Z,101180.75
2023-03-01T11:31:07.577Z,101177.94
2023-03-01T11:34:24.853Z,101183.69
2023-03-01T11:37:52.909Z,101174.59
2023-03-01T11:41:06.636Z,101176.66
2023-03-01T11:44:18.849Z,101170.84
2023-03-01T11:47:40.605Z,101163.84
2023-03-01T11:50:49.234Z,101164.69
2023-03-01T11:54:08.106Z,101164.31
2023-03-01T11:57:49.229Z,101156.47
2023-03-01T12:01:09.438Z,101156.06
2023-03-01T12:04:24.195Z,101159.06
2023-03-01T12:07:47.550Z,101153.84
2023-03-01T12:11:04.598Z,101150.28
2023-03-01T12:14:16.197Z,101146.06
2023-03-01T12:17:39.525Z,101146.22
2023-03-01T12:21:37.709Z,101132.47
2023-03-01T12:25:00.234Z,101132.16
2023-03-01T12:28:10.315Z,101116.75
2023-03-01T12:31:37.792Z,101125.50
2023-03-01T12:35:10.958Z,101114.87
2023-03-01T12:38:19.316Z,101110.81
2023-03-01T12:41:34.988Z,101105.50
2023-03-01T12:45:03.973Z,101104.91
2023-03-01T12:48:36.691Z,101102.25
2023-03-01T12:51:41.501Z,101103.25
2023-03-01T12:54:46.557Z,101098.94
2023-03-01T12:58:21.990Z,101100.06
2023-03-01T13:01:33.573Z,101101.84
2023-03-01T13:05:08.005Z,101093.53
2023-03-01T13:08:18.161Z,101093.31
2023-03-01T13:11:23.898Z,101096.72
2023-03-01T13:14:26.327Z,101097.34
2023-03-01T13:17:41.465Z,101086.12
2023-03-01T13:20:44.429Z,101082.69
2023-03-01T13:23:49.121Z,101087.69
2023-03-01T13:27:06.948Z,101080.06
2023-03-01T13:30:34.974Z,101062.66
2023-03-01T13:33:51.948Z,101055.81
2023-03-01T13:37:09.814Z,101058.50
2023-03-01T13:40:19.555Z,101062.69
2023-03-01T13:43:32.058Z,101058.78
2023-03-01T13:46:35.215Z,101048.28
2023-03-01T13:49:50.990Z,101048.13
2023-03-01T13:52:59.659Z,101044.03
2023-03-01T13:56:09.014Z,101036.00
2023-03-01T13:59:17.151Z,101030.75
2023-03-01T14:02:19.846Z,101027.25
2023-03-01T14:05:22.686Z,101035.66
2023-03-01T14:08:28.062Z,101031.59
2023-03-01T14:11:39.969Z,101026.81
2023-03-01T14:14:54.887Z,101017.00
2023-03-01T14:18:27.136Z,101010.13
2023-03-01T14:21:31.117Z,101000.22
2023-03-01T14:24:38.557Z,100997.00
2023-03-01T14:27:43.172Z,101002.47
2023-03-01T14:30:52.174Z,100993.16
2023-03-01T14:33:58.134Z,100989.72
2023-03-01T14:37:19.826Z,100987.41
2023-03-01T14:40:36.271Z,100977.06
2023-03-01T14:43:45.153Z,100979.53
2023-03-01T14:46:47.835Z,100969.84
2023-03-01T14:49:59.431Z,100966.09
2023-03-01T14:53:09.047Z,100964.09
2023-03-01T14:56:18.426Z,100961.88
2023-03-01T14:59:24.948Z,100971.81
2023-03-01T15:02:30.092Z,100966.88
2023-03-01T15:05:34.540Z,100961.03
2023-03-01T15:08:42.044Z,100959.06
2023-03-01T15:11:45.080Z,100960.84
2023-03-01T15:15:02.686Z,100954.97
2023-03-01T15:18:16.442Z,100956.13
2023-03-01T15:21:23.964Z,100962.63
2023-03-01T15:24:28.574Z,100957.44
2023-03-01T15:27:31.291Z,100964.00
2023-03-01T15:30:38.167Z,100963.31
2023-03-01T15:33:47.963Z,100964.00
2023-03-01T15:36:53.299Z,100957.03
2023-03-01T15:39:57.905Z,100961.44
2023-03-01T15:43:02.297Z,100961.12
2023-03-01T15:46:05.131Z,100964.19
2023-03-01T15:49:46.485Z,100956.00
2023-03-01T15:52:58.946Z,100958.63
2023-03-01T15:56:01.256Z,100961.38
2023-03-01T15:59:05.536Z,100963.75
2023-03-01T16:02:13.592Z,100957.78
2023-03-01T16:05:26.800Z,100961.50
2023-03-01T16:08:30.099Z,100972.44
2023-03-01T16:11:33.540Z,100968.22
2023-03-01T16:14:35.798Z,100968.66
2023-03-01T16:17:38.387Z,100978.34
2023-03-01T16:20:42.124Z,100973.50
2023-03-01T16:23:45.282Z,100972.41
2023-03-01T16:26:47.628Z,100974.22
2023-03-01T16:29:50.564Z,100972.59
2023-03-01T16:32:53.119Z,100991.34
2023-03-01T16:35:56.059Z,100987.38
2023-03-01T16:38:59.947Z,100984.00
2023-03-01T16:42:02.562Z,100994.44
2023-03-01T16:45:09.163Z,100997.22
2023-03-01T16:48:16.786Z,101001.44
